Time;durP1;ratioP1;P1;durP2;ratioP2;P2;SDS_P1;SDS_P2;PMS_P1;PMS_P2;Temp;Humidity;BMP_temperature;BMP_pressure;BME280_temperature;BME280_humidity;BME280_pressure;Samples;Min_cycle;Max_cycle;Signal;HPM_P1;HPM_P2
2022/10/02 00:01:12;;;;;;;0.40;0.40;;;;;;;19.67;100.00;98836.59;5130799;27;20209;-77
2022/10/02 00:03:43;;;;;;;0.43;0.43;;;;;;;19.73;100.00;98854.31;5131783;27;20258;-76
2022/10/02 00:06:15;;;;;;;0.40;0.40;;;;;;;19.74;100.00;98855.97;5131125;27;20669;-76
2022/10/02 00:08:43;;;;;;;0.80;0.80;;;;;;;19.72;100.00;98860.47;5138197;27;20222;-76
2022/10/02 00:11:16;;;;;;;0.60;0.60;;;;;;;19.75;100.00;98873.22;5130834;27;20220;-76
2022/10/02 00:13:48;;;;;;;0.50;0.50;;;;;;;19.73;100.00;98880.31;5128100;27;20198;-76
2022/10/02 00:16:24;;;;;;;0.50;0.50;;;;;;;19.69;100.00;98863.28;5130538;27;20256;-77
2022/10/02 00:18:54;;;;;;;0.40;0.40;;;;;;;19.63;100.00;98853.38;5131216;27;20207;-76
2022/10/02 00:21:44;;;;;;;0.73;0.73;;;;;;;19.62;100.00;98854.28;5131655;27;20200;-76
2022/10/02 00:24:16;;;;;;;0.83;0.83;;;;;;;19.62;100.00;98861.25;5128274;27;20198;-76
2022/10/02 00:26:52;;;;;;;0.40;0.40;;;;;;;19.55;100.00;98855.69;5131354;27;20187;-77
2022/10/02 00:29:30;;;;;;;0.50;0.50;;;;;;;19.52;100.00;98871.53;5130481;27;20191;-77
2022/10/02 00:32:10;;;;;;;0.33;0.33;;;;;;;19.42;100.00;98860.16;5131475;27;20190;-76
2022/10/02 00:34:50;;;;;;;0.50;0.50;;;;;;;19.17;100.00;98855.09;5131348;27;20269;-76
2022/10/02 00:37:22;;;;;;;0.50;0.50;;;;;;;19.07;100.00;98849.75;5131078;27;20272;-77
2022/10/02 00:39:59;;;;;;;0.30;0.30;;;;;;;18.85;100.00;98816.72;5130995;27;20665;-76
2022/10/02 00:42:55;;;;;;;0.50;0.50;;;;;;;18.75;100.00;98839.13;5131107;27;20190;-76
2022/10/02 00:46:08;;;;;;;0.40;0.40;;;;;;;18.71;100.00;98848.06;5131070;27;20654;-76
2022/10/02 00:48:49;;;;;;;0.30;0.30;;;;;;;18.62;100.00;98874.69;5130315;27;20194;-76
2022/10/02 00:51:28;;;;;;;0.40;0.40;;;;;;;18.52;100.00;98873.69;5130715;27;20259;-77
2022/10/02 00:54:04;;;;;;;0.50;0.50;;;;;;;18.17;100.00;98824.22;5131182;27;20198;-77
2022/10/02 00:56:41;;;;;;;0.53;0.53;;;;;;;18.49;100.00;98876.47;5131145;27;20221;-76
2022/10/02 00:59:31;;;;;;;0.50;0.50;;;;;;;18.56;100.00;98889.88;5131344;27;20266;-76
2022/10/02 01:02:04;;;;;;;0.40;0.40;;;;;;;18.55;100.00;98883.84;5130981;27;20313;-75
2022/10/02 01:04:34;;;;;;;0.60;0.60;;;;;;;18.63;100.00;98885.91;5131017;27;20201;-76
2022/10/02 01:07:02;;;;;;;0.60;0.60;;;;;;;18.65;100.00;98900.44;5130558;27;20625;-76
2022/10/02 01:09:29;;;;;;;0.50;0.50;;;;;;;18.71;100.00;98887.00;5130863;27;20194;-76
2022/10/02 01:11:57;;;;;;;0.50;0.50;;;;;;;18.76;100.00;98897.91;5134179;27;20229;-77
2022/10/02 01:14:32;;;;;;;0.40;0.40;;;;;;;18.84;100.00;98908.56;5129944;27;20232;-76
2022/10/02 01:17:01;;;;;;;0.40;0.40;;;;;;;18.90;100.00;98896.09;5128464;27;20227;-76
2022/10/02 01:19:37;;;;;;;0.73;0.73;;;;;;;18.92;100.00;98891.59;5133717;27;20191;-76
2022/10/02 01:22:15;;;;;;;0.60;0.60;;;;;;;18.93;100.00;98875.09;5134504;27;20186;-76
2022/10/02 01:24:50;;;;;;;0.50;0.50;;;;;;;18.94;100.00;98868.94;5134644;27;20187;-77
2022/10/02 01:27:17;;;;;;;0.40;0.40;;;;;;;18.93;100.00;98867.28;5134973;27;20247;-76
2022/10/02 01:29:46;;;;;;;0.40;0.40;;;;;;;18.93;100.00;98865.53;5134567;27;20222;-76
2022/10/02 01:32:13;;;;;;;0.40;0.40;;;;;;;18.91;100.00;98850.97;5134953;27;20199;-76
2022/10/02 01:34:40;;;;;;;0.33;0.33;;;;;;;18.88;100.00;98837.28;5134801;27;20616;-77
2022/10/02 01:37:08;;;;;;;0.50;0.50;;;;;;;18.82;100.00;98842.94;5134368;27;20307;-77
2022/10/02 01:39:35;;;;;;;0.50;0.50;;;;;;;18.71;100.00;98822.09;5134425;27;20277;-76
2022/10/02 01:42:04;;;;;;;0.80;0.80;;;;;;;18.76;100.00;98838.19;5134416;27;20661;-76
2022/10/02 01:44:32;;;;;;;0.60;0.60;;;;;;;18.77;100.00;98839.03;5133840;27;20226;-76
2022/10/02 01:47:04;;;;;;;0.60;0.60;;;;;;;18.76;100.00;98835.59;5133270;27;20198;-77
2022/10/02 01:49:44;;;;;;;0.53;0.53;;;;;;;18.79;100.00;98837.13;5133732;27;20194;-76
2022/10/02 01:52:24;;;;;;;0.40;0.40;;;;;;;18.78;100.00;98828.50;5134451;27;20190;-76
2022/10/02 01:55:03;;;;;;;0.40;0.40;;;;;;;18.84;100.00;98829.81;5133955;27;20193;-77
2022/10/02 01:57:45;;;;;;;0.80;0.80;;;;;;;18.85;100.00;98832.31;5134323;27;20233;-77
2022/10/02 02:00:17;;;;;;;0.50;0.50;;;;;;;18.85;100.00;98834.91;5133809;27;20202;-77
2022/10/02 02:02:53;;;;;;;0.30;0.30;;;;;;;18.86;100.00;98841.78;5134527;27;20282;-77
2022/10/02 02:05:31;;;;;;;0.40;0.40;;;;;;;18.88;100.00;98844.25;5134290;27;20205;-77
2022/10/02 02:08:06;;;;;;;0.50;0.50;;;;;;;18.90;100.00;98851.94;5137718;27;20289;-76
2022/10/02 02:10:43;;;;;;;0.50;0.50;;;;;;;18.88;100.00;98847.66;5132056;27;20270;-76
2022/10/02 02:13:16;;;;;;;0.47;0.47;;;;;;;18.93;100.00;98852.53;5131700;27;20197;-77
2022/10/02 02:15:52;;;;;;;0.50;0.50;;;;;;;18.91;100.00;98854.41;5133764;27;20228;-77
2022/10/02 02:18:26;;;;;;;0.40;0.40;;;;;;;18.93;100.00;98856.91;5133613;27;20208;-77
2022/10/02 02:20:58;;;;;;;0.47;0.47;;;;;;;18.96;100.00;98867.06;5133859;27;20197;-76
2022/10/02 02:23:29;;;;;;;0.40;0.40;;;;;;;18.94;100.00;98869.78;5133291;27;20202;-77
2022/10/02 02:26:02;;;;;;;0.50;0.50;;;;;;;18.96;100.00;98882.66;5133609;27;20277;-76
2022/10/02 02:28:34;;;;;;;0.50;0.50;;;;;;;18.94;100.00;98874.13;5133624;27;21036;-76
2022/10/02 02:31:03;;;;;;;0.40;0.40;;;;;;;18.91;100.00;98871.75;5135605;27;20197;-77
2022/10/02 02:33:36;;;;;;;0.40;0.40;;;;;;;18.97;100.00;98894.69;5132878;27;20265;-76
2022/10/02 02:36:12;;;;;;;0.50;0.50;;;;;;;19.00;100.00;98887.50;5133462;27;20245;-77
2022/10/02 02:38:44;;;;;;;0.50;0.50;;;;;;;19.00;100.00;98899.69;5133401;27;20232;-77
2022/10/02 02:41:15;;;;;;;0.47;0.47;;;;;;;19.05;100.00;98897.56;5133038;27;20255;-77
2022/10/02 02:43:48;;;;;;;0.50;0.50;;;;;;;19.10;100.00;98911.03;5133124;27;20677;-76
2022/10/02 02:46:21;;;;;;;0.40;0.40;;;;;;;19.08;100.00;98920.72;5133130;27;20194;-76
2022/10/02 02:48:55;;;;;;;0.40;0.40;;;;;;;19.11;100.00;98920.50;5133122;27;20198;-77
2022/10/02 02:51:26;;;;;;;0.30;0.30;;;;;;;19.07;100.00;98911.28;5133426;27;20230;-76
2022/10/02 02:54:00;;;;;;;1.37;1.37;;;;;;;19.09;100.00;98930.19;5133465;27;20294;-77
2022/10/02 02:56:32;;;;;;;0.60;0.60;;;;;;;18.99;100.00;98929.19;5133029;27;20928;-76
2022/10/02 02:59:05;;;;;;;0.40;0.40;;;;;;;19.02;100.00;98950.59;5132850;27;20194;-77
2022/10/02 03:01:32;;;;;;;0.50;0.50;;;;;;;19.04;100.00;98947.88;5132191;27;20190;-77
2022/10/02 03:04:00;;;;;;;2.13;0.80;;;;;;;19.00;100.00;98956.84;5132830;27;20190;-77
2022/10/02 03:06:32;;;;;;;0.73;0.73;;;;;;;18.92;100.00;98959.13;5132396;27;20281;-77
2022/10/02 03:09:02;;;;;;;0.40;0.40;;;;;;;18.84;100.00;98970.91;5133892;27;20216;-77
2022/10/02 03:11:52;;;;;;;0.47;0.47;;;;;;;18.77;100.00;98971.47;5131906;27;20708;-77
2022/10/02 03:14:44;;;;;;;0.53;0.53;;;;;;;18.75;100.00;98988.88;5132295;27;20752;-76
2022/10/02 03:17:22;;;;;;;0.50;0.50;;;;;;;18.63;100.00;98975.00;5132375;27;20210;-76
2022/10/02 03:19:54;;;;;;;0.40;0.40;;;;;;;18.69;100.00;98990.16;5143484;27;20194;-77
2022/10/02 03:22:29;;;;;;;0.63;0.63;;;;;;;18.66;100.00;98990.38;5139224;27;20193;-77
2022/10/02 03:25:03;;;;;;;0.40;0.40;;;;;;;18.68;100.00;99003.22;5132872;27;20572;-77
2022/10/02 03:27:37;;;;;;;0.47;0.47;;;;;;;18.71;100.00;99003.84;5132283;27;20200;-77
2022/10/02 03:30:08;;;;;;;0.43;0.43;;;;;;;18.69;100.00;99008.34;5130979;27;20721;-77
2022/10/02 03:32:36;;;;;;;0.60;0.60;;;;;;;18.68;100.00;99006.66;5131019;27;20193;-77
2022/10/02 03:35:09;;;;;;;0.40;0.40;;;;;;;18.68;100.00;99014.44;5132145;27;20251;-77
2022/10/02 03:37:36;;;;;;;0.43;0.43;;;;;;;18.70;100.00;99020.38;5131979;27;20760;-77
2022/10/02 03:40:04;;;;;;;0.50;0.50;;;;;;;18.73;100.00;99024.53;5131301;27;20173;-77
2022/10/02 03:42:34;;;;;;;0.43;0.43;;;;;;;18.74;100.00;99021.81;5130573;27;20281;-77
2022/10/02 03:45:01;;;;;;;0.40;0.40;;;;;;;18.75;100.00;99031.28;5131882;27;20709;-77
2022/10/02 03:47:30;;;;;;;0.50;0.50;;;;;;;18.75;100.00;99026.06;5131713;27;20194;-77
2022/10/02 03:49:57;;;;;;;0.40;0.40;;;;;;;18.77;100.00;99029.38;5132585;27;20679;-76
2022/10/02 03:52:25;;;;;;;0.60;0.60;;;;;;;18.75;100.00;99020.88;5131826;27;20190;-77
2022/10/02 03:54:57;;;;;;;0.47;0.47;;;;;;;18.77;100.00;99021.59;5132185;27;20273;-76
2022/10/02 03:57:25;;;;;;;0.40;0.40;;;;;;;18.75;100.00;99026.06;5131665;27;20410;-77
2022/10/02 04:00:00;;;;;;;0.50;0.50;;;;;;;18.69;100.00;99017.88;5132024;27;20195;-77
2022/10/02 04:02:36;;;;;;;0.60;0.60;;;;;;;18.65;100.00;99030.25;5130173;27;20288;-76
2022/10/02 04:05:12;;;;;;;0.40;0.40;;;;;;;18.56;100.00;99043.03;5131564;27;20626;-76
2022/10/02 04:07:43;;;;;;;0.50;0.50;;;;;;;18.45;100.00;99043.72;5138146;27;20196;-76
2022/10/02 04:10:26;;;;;;;0.60;0.60;;;;;;;18.40;100.00;99053.59;5131535;27;20197;-77
2022/10/02 04:13:00;;;;;;;0.40;0.40;;;;;;;18.30;100.00;99045.59;5132038;27;20241;-77
2022/10/02 04:15:32;;;;;;;0.50;0.50;;;;;;;18.28;100.00;99055.25;5132382;27;20227;-76
2022/10/02 04:18:05;;;;;;;0.50;0.50;;;;;;;18.25;100.00;99067.59;5130159;27;20213;-76
2022/10/02 04:20:42;;;;;;;0.40;0.40;;;;;;;18.21;100.00;99063.53;5130092;27;20277;-77
2022/10/02 04:23:16;;;;;;;0.40;0.40;;;;;;;18.24;100.00;99071.13;5130336;27;20221;-77
2022/10/02 04:25:49;;;;;;;0.40;0.40;;;;;;;18.19;100.00;99068.81;5131051;27;20234;-77
2022/10/02 04:28:22;;;;;;;0.50;0.50;;;;;;;18.17;100.00;99069.88;5131155;27;20233;-77
2022/10/02 04:30:52;;;;;;;0.50;0.50;;;;;;;18.12;100.00;99067.59;5131301;27;20185;-77
2022/10/02 04:33:24;;;;;;;0.60;0.60;;;;;;;18.08;100.00;99070.47;5130661;27;20263;-77
2022/10/02 04:36:02;;;;;;;0.50;0.50;;;;;;;18.02;100.00;99065.69;5128392;27;20190;-77
2022/10/02 04:38:58;;;;;;;0.50;0.50;;;;;;;18.01;100.00;99071.81;5127332;27;20194;-77
2022/10/02 04:41:40;;;;;;;0.50;0.50;;;;;;;18.00;100.00;99077.91;5124982;27;20340;-76
2022/10/02 04:44:20;;;;;;;0.60;0.60;;;;;;;17.94;100.00;99078.31;5129915;27;20668;-77
2022/10/02 04:47:05;;;;;;;0.50;0.50;;;;;;;17.91;100.00;99088.91;5129691;27;20247;-77
2022/10/02 04:49:55;;;;;;;0.40;0.40;;;;;;;17.88;100.00;99094.28;5130512;27;20214;-77
2022/10/02 04:52:42;;;;;;;0.50;0.50;;;;;;;17.81;100.00;99097.28;5130831;27;20722;-78
2022/10/02 04:55:30;;;;;;;0.50;0.50;;;;;;;17.75;100.00;99099.44;5130407;27;20200;-77
2022/10/02 04:58:25;;;;;;;0.47;0.47;;;;;;;17.81;100.00;99110.25;5134754;27;20224;-77
2022/10/02 05:01:04;;;;;;;0.53;0.53;;;;;;;17.80;100.00;99118.94;5059477;27;20188;-77
2022/10/02 05:03:52;;;;;;;0.53;0.53;;;;;;;17.81;100.00;99120.59;5133041;27;20717;-77
2022/10/02 05:06:44;;;;;;;0.40;0.40;;;;;;;17.84;100.00;99124.75;5139380;27;20685;-78
2022/10/02 05:09:19;;;;;;;0.50;0.50;;;;;;;17.96;100.00;99136.13;5131723;27;20282;-77
2022/10/02 05:12:17;;;;;;;0.40;0.40;;;;;;;18.02;100.00;99138.31;5131854;27;20217;-77
2022/10/02 05:15:03;;;;;;;0.50;0.50;;;;;;;18.13;100.00;99152.25;5131453;27;20640;-77
2022/10/02 05:17:46;;;;;;;0.50;0.50;;;;;;;18.17;100.00;99158.06;5133845;27;20274;-77
2022/10/02 05:20:31;;;;;;;0.50;0.50;;;;;;;18.25;100.00;99161.03;5134030;27;20198;-77
2022/10/02 05:23:18;;;;;;;0.60;0.60;;;;;;;18.34;100.00;99171.63;5136282;27;20670;-76
2022/10/02 05:26:05;;;;;;;0.50;0.50;;;;;;;18.52;100.00;99184.34;5132450;27;20206;-76
2022/10/02 05:28:53;;;;;;;0.60;0.60;;;;;;;18.66;100.00;99190.31;5133200;27;20186;-77
2022/10/02 05:31:34;;;;;;;0.57;0.57;;;;;;;18.85;100.00;99180.34;5133808;27;20200;-76
2022/10/02 05:34:17;;;;;;;0.80;0.80;;;;;;;18.97;100.00;99191.66;5134509;27;20222;-77
2022/10/02 05:36:59;;;;;;;0.70;0.70;;;;;;;19.14;100.00;99193.13;5133266;27;20242;-77
2022/10/02 05:39:33;;;;;;;0.40;0.40;;;;;;;19.07;100.00;99197.06;5134111;27;20692;-79
2022/10/02 05:42:12;;;;;;;0.50;0.50;;;;;;;19.12;100.00;99211.44;5134226;27;20200;-79
2022/10/02 05:44:42;;;;;;;0.50;0.50;;;;;;;19.16;100.00;99222.44;5137914;27;20204;-79
2022/10/02 05:47:16;;;;;;;0.40;0.40;;;;;;;19.01;100.00;99228.66;5133074;27;20194;-78
2022/10/02 05:49:51;;;;;;;0.70;0.70;;;;;;;18.88;100.00;99232.09;5134117;27;20608;-79
2022/10/02 05:52:21;;;;;;;0.37;0.37;;;;;;;18.81;100.00;99236.03;5133562;27;20189;-79
2022/10/02 05:54:55;;;;;;;0.53;0.53;;;;;;;18.81;100.00;99232.59;5133790;27;20606;-78
2022/10/02 05:57:30;;;;;;;0.40;0.40;;;;;;;19.05;100.00;99240.53;5133585;27;20319;-80
2022/10/02 06:00:08;;;;;;;0.50;0.50;;;;;;;19.25;100.00;99247.81;5133065;27;20303;-79
2022/10/02 06:02:45;;;;;;;0.50;0.50;;;;;;;19.37;100.00;99259.97;5132059;27;20213;-79
2022/10/02 06:05:19;;;;;;;0.50;0.50;;;;;;;19.51;100.00;99262.50;5131669;27;20624;-78
2022/10/02 06:07:49;;;;;;;0.57;0.57;;;;;;;19.62;99.12;99267.75;5132171;27;20201;-78
2022/10/02 06:10:23;;;;;;;0.50;0.50;;;;;;;19.70;98.60;99270.69;5136201;27;20196;-78
2022/10/02 06:12:55;;;;;;;0.70;0.70;;;;;;;19.76;97.80;99265.06;5137184;27;20204;-80
2022/10/02 06:15:30;;;;;;;0.43;0.43;;;;;;;20.01;96.80;99284.13;5133465;27;20595;-78
2022/10/02 06:18:03;;;;;;;0.40;0.40;;;;;;;20.08;96.28;99285.38;5133231;27;20716;-79
2022/10/02 06:20:34;;;;;;;0.77;0.77;;;;;;;20.16;95.38;99288.28;5130106;27;20198;-78
2022/10/02 06:23:06;;;;;;;0.50;0.50;;;;;;;20.27;95.35;99275.34;5121950;27;20195;-79
2022/10/02 06:25:40;;;;;;;0.40;0.40;;;;;;;20.34;93.32;99290.41;5129957;27;20248;-78
2022/10/02 06:28:13;;;;;;;0.50;0.50;;;;;;;20.41;93.52;99277.78;5131483;27;20198;-78
2022/10/02 06:30:45;;;;;;;0.40;0.40;;;;;;;20.49;93.85;99282.41;5131035;27;20197;-78
2022/10/02 06:33:18;;;;;;;0.40;0.40;;;;;;;20.53;93.33;99276.91;5125465;27;20201;-78
2022/10/02 06:36:18;;;;;;;0.40;0.40;;;;;;;20.47;91.28;99279.94;5129474;27;20195;-78
2022/10/02 06:39:06;;;;;;;0.40;0.40;;;;;;;20.57;92.10;99277.50;5132136;27;20204;-78
2022/10/02 06:41:46;;;;;;;0.80;0.80;;;;;;;20.59;90.24;99286.84;5129704;27;20204;-79
2022/10/02 06:44:23;;;;;;;0.50;0.50;;;;;;;20.71;89.14;99300.78;5126551;27;20273;-78
2022/10/02 06:47:03;;;;;;;0.37;0.37;;;;;;;20.82;86.46;99293.81;5131900;27;20200;-78
2022/10/02 06:49:46;;;;;;;0.50;0.50;;;;;;;20.93;86.16;99296.47;5134951;27;20269;-79
2022/10/02 06:52:23;;;;;;;0.40;0.40;;;;;;;21.06;85.68;99288.59;5137509;27;20196;-79
2022/10/02 06:55:09;;;;;;;0.40;0.40;;;;;;;21.22;83.63;99301.31;5130659;27;20197;-78
2022/10/02 06:57:55;;;;;;;0.53;0.53;;;;;;;21.34;82.83;99277.75;5128249;27;20235;-78
2022/10/02 07:00:23;;;;;;;0.77;0.77;;;;;;;21.37;83.05;99302.75;5127243;27;20219;-78
2022/10/02 07:03:15;;;;;;;0.40;0.40;;;;;;;21.44;81.69;99296.13;5129073;27;20192;-78
2022/10/02 07:06:01;;;;;;;0.53;0.53;;;;;;;21.60;81.12;99320.09;5131811;27;20201;-79
2022/10/02 07:08:41;;;;;;;0.30;0.30;;;;;;;21.71;81.00;99319.28;5132158;27;20620;-79
2022/10/02 07:11:20;;;;;;;0.40;0.40;;;;;;;21.68;80.44;99309.91;5131655;27;20223;-80
2022/10/02 07:14:05;;;;;;;0.43;0.43;;;;;;;21.92;79.39;99300.22;5132094;27;20182;-79
2022/10/02 07:16:50;;;;;;;0.40;0.40;;;;;;;22.07;77.81;99307.81;5127988;27;20748;-79
2022/10/02 07:19:34;;;;;;;0.40;0.40;;;;;;;22.12;76.22;99308.25;5130066;27;20212;-79
2022/10/02 07:22:10;;;;;;;0.40;0.40;;;;;;;22.22;74.01;99336.13;5131277;27;20197;-80
2022/10/02 07:24:57;;;;;;;0.57;0.57;;;;;;;22.37;74.62;99345.38;5128900;27;20280;-81
2022/10/02 07:27:31;;;;;;;0.30;0.30;;;;;;;22.51;73.30;99346.88;5131756;27;20224;-79
2022/10/02 07:30:04;;;;;;;0.30;0.30;;;;;;;22.58;74.16;99352.44;5132412;27;20293;-76
2022/10/02 07:32:46;;;;;;;0.40;0.40;;;;;;;22.64;72.28;99360.63;5130646;27;20194;-81
2022/10/02 07:35:34;;;;;;;0.40;0.40;;;;;;;22.83;74.34;99358.22;5130214;27;20202;-81
2022/10/02 07:38:15;;;;;;;0.30;0.30;;;;;;;22.83;70.55;99368.69;5130139;27;20229;-80
2022/10/02 07:40:50;;;;;;;0.40;0.40;;;;;;;22.94;72.11;99368.63;5130051;27;20194;-81
2022/10/02 07:43:31;;;;;;;0.20;0.20;;;;;;;23.10;71.34;99375.22;5131218;27;20226;-81
2022/10/02 07:46:14;;;;;;;0.30;0.30;;;;;;;23.21;69.66;99383.00;5134937;27;20193;-82
2022/10/02 07:48:56;;;;;;;0.30;0.30;;;;;;;23.34;70.07;99373.19;5128915;27;20448;-79
2022/10/02 07:51:48;;;;;;;0.32;0.32;;;;;;;23.50;68.82;99365.75;5129534;27;20439;-81
2022/10/02 07:54:48;;;;;;;0.40;0.40;;;;;;;23.41;68.55;99369.16;5130666;27;20197;-81
2022/10/02 07:57:31;;;;;;;0.37;0.37;;;;;;;23.40;68.36;99351.78;5130543;27;20221;-81
2022/10/02 08:00:05;;;;;;;0.30;0.30;;;;;;;23.45;68.70;99376.63;5131338;27;20250;-82
2022/10/02 08:02:39;;;;;;;0.30;0.30;;;;;;;23.44;68.83;99353.19;5132073;27;20254;-82
2022/10/02 08:05:17;;;;;;;0.50;0.50;;;;;;;23.61;67.46;99370.94;5126736;27;20783;-82
2022/10/02 08:07:49;;;;;;;0.30;0.30;;;;;;;23.67;65.48;99370.41;5149849;27;20788;-82
2022/10/02 08:10:21;;;;;;;0.40;0.40;;;;;;;23.68;65.64;99361.59;5150932;27;20250;-80
2022/10/02 08:12:59;;;;;;;0.20;0.20;;;;;;;23.63;65.12;99358.53;5130083;27;20711;-80
2022/10/02 08:15:32;;;;;;;0.40;0.40;;;;;;;23.83;67.06;99355.06;5130816;27;20190;-81
2022/10/02 08:18:08;;;;;;;0.30;0.30;;;;;;;23.84;65.78;99367.19;5130665;27;20607;-82
2022/10/02 08:20:39;;;;;;;0.30;0.30;;;;;;;23.94;65.20;99357.56;5131308;27;20289;-81
2022/10/02 08:23:13;;;;;;;0.30;0.30;;;;;;;23.88;64.47;99352.03;5132098;27;20210;-82
2022/10/02 08:25:48;;;;;;;0.30;0.30;;;;;;;23.81;63.04;99362.19;5131904;27;20212;-81
2022/10/02 08:28:21;;;;;;;0.40;0.40;;;;;;;23.85;63.52;99363.59;5131424;27;20193;-82
2022/10/02 08:30:48;;;;;;;0.30;0.30;;;;;;;24.02;63.71;99360.38;5131816;27;20194;-82
2022/10/02 08:33:19;;;;;;;0.30;0.30;;;;;;;24.07;63.85;99348.69;5132048;27;20190;-81
2022/10/02 08:36:07;;;;;;;0.30;0.30;;;;;;;23.90;63.83;99360.59;5131814;27;20218;-82
2022/10/02 08:38:40;;;;;;;0.40;0.40;;;;;;;23.97;62.53;99356.50;5131933;27;20255;-79
2022/10/02 08:41:50;;;;;;;0.23;0.23;;;;;;;23.95;64.09;99366.25;5131021;27;20193;-81
2022/10/02 08:44:51;;;;;;;0.30;0.30;;;;;;;24.00;62.29;99358.88;5102220;27;20197;-82
2022/10/02 08:47:44;;;;;;;0.30;0.30;;;;;;;24.27;59.89;99368.75;5131509;27;20276;-81
2022/10/02 08:50:58;;;;;;;0.47;0.47;;;;;;;24.19;56.25;99368.59;5128221;27;20190;-79
2022/10/02 08:53:56;;;;;;;0.30;0.30;;;;;;;24.25;58.64;99365.44;5111339;27;20202;-81
2022/10/02 08:56:32;;;;;;;0.30;0.30;;;;;;;24.40;58.97;99364.09;5130312;27;20198;-82
2022/10/02 08:59:30;;;;;;;0.57;0.57;;;;;;;24.43;54.96;99369.06;5132031;27;20216;-82
2022/10/02 09:02:42;;;;;;;0.30;0.30;;;;;;;24.52;59.02;99373.53;5151864;27;20276;-81
2022/10/02 09:05:54;;;;;;;0.27;0.27;;;;;;;24.64;57.80;99377.69;5095735;27;20196;-82
2022/10/02 09:08:57;;;;;;;0.30;0.30;;;;;;;24.61;56.96;99377.97;5147837;27;20186;-82
2022/10/02 09:12:02;;;;;;;0.30;0.30;;;;;;;24.58;57.04;99369.53;5131272;27;20221;-81
2022/10/02 09:14:51;;;;;;;0.30;0.30;;;;;;;24.68;55.38;99363.34;5130335;27;20202;-81
2022/10/02 09:17:44;;;;;;;0.23;0.23;;;;;;;24.73;56.04;99369.00;5130972;27;20272;-80
2022/10/02 09:20:41;;;;;;;0.20;0.20;;;;;;;24.71;54.77;99373.56;5131434;27;20190;-80
2022/10/02 09:24:01;;;;;;;0.30;0.30;;;;;;;24.73;55.28;99366.38;5131255;27;20214;-80
2022/10/02 09:26:46;;;;;;;0.30;0.30;;;;;;;24.83;58.29;99361.16;5131180;27;20191;-80
2022/10/02 09:29:44;;;;;;;0.30;0.30;;;;;;;24.80;53.41;99362.25;5130392;27;20208;-80
2022/10/02 09:32:56;;;;;;;0.30;0.30;;;;;;;24.86;47.98;99366.97;5131319;27;20198;-78
2022/10/02 09:36:00;;;;;;;0.30;0.30;;;;;;;24.89;45.69;99366.69;5131196;27;20190;-80
2022/10/02 09:39:04;;;;;;;0.20;0.20;;;;;;;24.97;46.69;99360.78;5130491;27;20272;-79
2022/10/02 09:42:08;;;;;;;0.40;0.40;;;;;;;24.85;46.08;99365.31;5132661;27;20732;-81
2022/10/02 09:45:03;;;;;;;0.20;0.20;;;;;;;24.89;46.62;99344.88;5135041;27;20715;-80
2022/10/02 09:48:14;;;;;;;0.30;0.30;;;;;;;24.93;48.38;99349.72;5123679;27;20209;-80
2022/10/02 09:51:04;;;;;;;0.30;0.30;;;;;;;25.00;45.96;99369.19;5133189;27;20635;-81
2022/10/02 09:54:09;;;;;;;0.30;0.30;;;;;;;25.08;44.96;99360.63;5133746;27;20206;-81
2022/10/02 09:57:05;;;;;;;0.23;0.23;;;;;;;25.18;45.38;99365.84;5133153;27;20269;-81
2022/10/02 10:00:06;;;;;;;0.30;0.30;;;;;;;25.07;45.36;99359.78;5154263;27;20202;-81
2022/10/02 10:03:09;;;;;;;0.30;0.30;;;;;;;25.01;47.57;99343.78;5118513;27;20206;-80
2022/10/02 10:06:18;;;;;;;0.30;0.30;;;;;;;25.06;48.66;99342.41;5137107;27;20564;-81
2022/10/02 10:09:08;;;;;;;0.40;0.40;;;;;;;25.16;49.33;99349.44;5154876;27;20196;-79
2022/10/02 10:12:07;;;;;;;0.30;0.30;;;;;;;25.21;47.08;99344.59;5154607;27;20221;-81
2022/10/02 10:15:06;;;;;;;0.20;0.20;;;;;;;25.29;48.83;99348.19;5155508;27;20201;-81
2022/10/02 10:18:10;;;;;;;0.30;0.30;;;;;;;25.24;44.04;99355.63;5153550;27;20596;-81
2022/10/02 10:21:07;;;;;;;0.40;0.40;;;;;;;25.35;46.05;99337.13;5144921;27;20308;-80
2022/10/02 10:24:12;;;;;;;0.20;0.20;;;;;;;25.36;45.50;99343.19;5154892;27;20194;-80
2022/10/02 10:27:08;;;;;;;0.20;0.20;;;;;;;25.33;45.36;99333.00;5121742;27;20198;-80
2022/10/02 10:30:04;;;;;;;0.30;0.30;;;;;;;25.39;47.75;99342.91;5132713;27;20190;-81
2022/10/02 10:33:02;;;;;;;0.33;0.33;;;;;;;25.36;47.62;99337.94;5134096;27;20190;-78
2022/10/02 10:36:06;;;;;;;0.40;0.40;;;;;;;25.38;48.75;99346.50;5134154;27;20192;-80
2022/10/02 10:38:51;;;;;;;0.30;0.30;;;;;;;25.34;46.07;99350.38;5133955;27;20214;-80
2022/10/02 10:41:53;;;;;;;0.30;0.30;;;;;;;25.34;47.47;99342.50;5155145;27;20194;-81
2022/10/02 10:45:02;;;;;;;0.33;0.33;;;;;;;25.33;48.16;99339.03;5154960;27;20193;-81
2022/10/02 10:47:55;;;;;;;0.30;0.30;;;;;;;25.42;45.08;99350.50;5135847;27;20592;-80
2022/10/02 10:50:44;;;;;;;0.20;0.20;;;;;;;25.45;44.54;99343.19;5129298;27;20203;-80
2022/10/02 10:53:30;;;;;;;0.40;0.40;;;;;;;25.50;44.50;99345.41;5130738;27;20205;-80
2022/10/02 10:56:39;;;;;;;0.30;0.30;;;;;;;25.62;43.63;99333.78;5133686;27;20202;-80
2022/10/02 10:59:41;;;;;;;0.30;0.30;;;;;;;25.59;45.23;99331.41;5108849;27;20660;-80
2022/10/02 11:02:52;;;;;;;0.20;0.20;;;;;;;25.38;43.80;99343.88;5128774;27;20436;-79
2022/10/02 11:05:51;;;;;;;0.30;0.30;;;;;;;25.57;43.99;99346.50;5087734;27;20424;-77
2022/10/02 11:08:46;;;;;;;0.30;0.30;;;;;;;25.70;44.05;99341.75;5126716;27;20191;-77
2022/10/02 11:11:21;;;;;;;0.27;0.27;;;;;;;25.66;43.17;99345.63;5106900;27;20740;-78
2022/10/02 11:14:05;;;;;;;0.27;0.27;;;;;;;25.65;43.12;99354.50;5132706;27;20190;-79
2022/10/02 11:17:03;;;;;;;0.37;0.37;;;;;;;25.73;44.83;99346.72;5131315;27;20232;-78
2022/10/02 11:19:54;;;;;;;0.30;0.30;;;;;;;25.74;43.81;99337.88;5136777;27;20217;-78
2022/10/02 11:22:52;;;;;;;0.30;0.30;;;;;;;25.62;43.13;99346.91;5130540;27;20196;-78
2022/10/02 11:25:41;;;;;;;0.30;0.30;;;;;;;25.52;42.93;99344.31;5126034;27;20577;-78
2022/10/02 11:28:31;;;;;;;0.30;0.30;;;;;;;25.58;43.40;99348.16;5124709;27;20202;-78
2022/10/02 11:31:17;;;;;;;0.30;0.30;;;;;;;25.56;43.85;99363.19;5127073;27;20202;-78
2022/10/02 11:34:07;;;;;;;0.20;0.20;;;;;;;25.66;42.67;99356.13;5126123;27;20198;-79
2022/10/02 11:36:51;;;;;;;0.30;0.30;;;;;;;25.63;42.13;99353.78;5126183;27;20196;-78
2022/10/02 11:39:58;;;;;;;0.27;0.27;;;;;;;25.56;43.10;99350.06;5136473;27;20621;-78
2022/10/02 11:42:45;;;;;;;0.30;0.30;;;;;;;25.56;42.46;99350.06;5129159;27;20201;-78
2022/10/02 11:45:27;;;;;;;0.30;0.30;;;;;;;25.51;43.42;99347.06;5132644;27;20280;-78
2022/10/02 11:48:37;;;;;;;0.23;0.23;;;;;;;25.58;43.26;99345.53;5127096;27;20198;-78
2022/10/02 11:51:33;;;;;;;0.30;0.30;;;;;;;25.61;43.54;99342.63;5125369;27;20288;-79
2022/10/02 11:54:23;;;;;;;0.20;0.20;;;;;;;25.57;42.46;99354.38;5135166;27;20186;-77
2022/10/02 11:57:08;;;;;;;0.30;0.30;;;;;;;25.59;44.43;99357.66;5128682;27;20202;-79
2022/10/02 11:59:56;;;;;;;0.30;0.30;;;;;;;25.51;42.32;99358.41;5129641;27;20604;-79
2022/10/02 12:02:33;;;;;;;0.47;0.47;;;;;;;25.52;42.65;99373.19;5133674;27;20229;-79
2022/10/02 12:05:26;;;;;;;0.40;0.40;;;;;;;25.39;42.58;99366.53;5127809;27;20193;-78
2022/10/02 12:08:03;;;;;;;0.30;0.30;;;;;;;25.46;42.06;99386.81;5127349;27;20664;-79
2022/10/02 12:10:42;;;;;;;0.30;0.30;;;;;;;25.53;42.49;99372.19;5128133;27;20273;-78
2022/10/02 12:13:42;;;;;;;0.33;0.33;;;;;;;25.51;42.59;99373.31;5129740;27;20198;-79
2022/10/02 12:16:20;;;;;;;0.30;0.30;;;;;;;25.58;41.70;99375.25;5112337;27;20205;-78
2022/10/02 12:19:01;;;;;;;0.20;0.20;;;;;;;25.61;42.49;99375.91;5134751;27;20225;-78
2022/10/02 12:27:42;;;;;;;0.20;0.20;;;;;;;25.73;42.36;99362.47;5114632;27;20313;-78
2022/10/02 12:30:14;;;;;;;0.37;0.37;;;;;;;25.83;42.10;99368.53;5129691;27;20259;-77
2022/10/02 12:33:26;;;;;;;0.20;0.20;;;;;;;25.77;41.74;99361.22;5128690;27;20213;-78
2022/10/02 12:36:20;;;;;;;0.30;0.30;;;;;;;25.73;42.63;99357.22;5125011;27;20209;-80
2022/10/02 12:38:58;;;;;;;0.23;0.23;;;;;;;25.71;42.85;99356.53;5134212;27;20304;-78
2022/10/02 12:41:52;;;;;;;0.27;0.27;;;;;;;25.71;42.06;99343.41;5135146;27;20190;-78
2022/10/02 12:44:43;;;;;;;0.27;0.27;;;;;;;25.65;42.49;99354.50;5136618;27;20286;-78